15:21
Airports
Links
Donate
Help keep this website running!
PayPal
Bitcoin
METAR
OTBH 191456Z 10009KT 9000 HZ CLR 19/16 A3002 RMK AO2A SLP168 T01860162 52006 $
Current Weather Conditions at OTBH
VFR 14:56:00 19-01-18
Automated station
Altimeter:30.02 hg
Temp:18.6°c 64°f
Dew point:16.2°c 61°f
Wind:9 knots, 10.4 mph, 5 m/s, from 100°
Visibility:5.59 statute miles
(CLR) Clear
Past METAR reports
VFR 13:56:00 19-01-18
Automated station
Altimeter:30.02 hg
Temp:20.5°c 68°f
Dew point:14.6°c 57°f
Wind:11 knots, 12.7 mph, 6 m/s, from 110°
Visibility:5.59 statute miles
(CLR) Clear
OTBH 191356Z 11011KT 9000 HZ CLR 21/15 A3002 RMK AO2A SLP168 T02050146 $
VFR 12:56:00 19-01-18
Automated station
Altimeter:30.01 hg
Temp:22.3°c 72°f
Dew point:9.8°c 48°f
Wind:9 knots, 10.4 mph, 5 m/s, from 130°
Visibility:5.59 statute miles
(CLR) Clear
OTBH 191256Z 13009KT 9000 HZ CLR 22/10 A3001 RMK AO2A SLP164 T02230098 $
VFR 11:56:00 19-01-18
Automated station
Altimeter:30.00 hg
Temp:23.0°c 73°f
Dew point:6.3°c 43°f
Wind:9 knots, 10.4 mph, 5 m/s, from 120°
Visibility:5.59 statute miles
(CLR) Clear
OTBH 191156Z 12009KT 9000 HZ CLR 23/06 A3000 RMK AO2A SLP161 T02300063 10232 20167 57016 $
VFR 10:56:00 19-01-18
Automated station
Altimeter:30.01 hg
Temp:23.1°c 73°f
Dew point:9.5°c 48°f
Wind:6 knots, 6.9 mph, 3 m/s, from 120°
Visibility:5.59 statute miles
(CLR) Clear
OTBH 191056Z 12006KT 9000 HZ CLR 23/10 A3001 RMK AO2A SLP164 T02310095 $
VFR 09:56:00 19-01-18
Automated station
Altimeter:30.02 hg
Temp:22.8°c 72°f
Dew point:11.2°c 52°f
Wind:7 knots, 8.1 mph, 4 m/s, from 140°
Visibility:5.59 statute miles
(CLR) Clear
OTBH 190956Z 14007KT 9000 HZ CLR 23/11 A3002 RMK AO2A SLP168 T02280112 $
TAF
TAF OTBH 191500Z 1915/2021 15012KT 9000 HZ FEW100 QNH3001INS BECMG 1921/1922 13009KT 5000 BR FEW100 QNH3001INS TEMPO 2000/2005 3200 BR BECMG 2005/2006 13012KT 9000 HZ FEW100 QNH3003INS TX23/2011Z TN10/2003Z
Forecast at OTBH
15:00 19-01-18 to 21:00 19-01-18
HZ
Wind:12 Knots from 150°
Visibility:5.59 statute miles
10000FEW A few
BECMG 21:00 19-01-18 to 05:00 20-01-18
BR
Wind:9 Knots from 130°
Visibility:3.11 statute miles
10000FEW A few
TEMPO 00:00 20-01-18 to 05:00 20-01-18
BR
Visibility:1.99 statute miles
BECMG 05:00 20-01-18 to 21:00 20-01-18
HZ
Wind:12 Knots from 130°
Visibility:5.59 statute miles
10000FEW A few